createdAt,value
2017-11-16T00:00:28.115Z,91.40
2017-11-16T00:02:54.744Z,91.30
2017-11-16T00:05:21.291Z,91.30
2017-11-16T00:07:47.814Z,91.50
2017-11-16T00:10:14.799Z,91.40
2017-11-16T00:12:41.354Z,91.40
2017-11-16T00:15:07.910Z,91.60
2017-11-16T00:17:34.518Z,92.00
2017-11-16T00:20:01.146Z,92.00
2017-11-16T00:22:28.288Z,92.30
2017-11-16T00:24:54.886Z,92.30
2017-11-16T00:27:21.439Z,92.40
2017-11-16T00:29:47.994Z,92.30
2017-11-16T00:32:14.579Z,92.30
2017-11-16T00:34:41.135Z,91.90
2017-11-16T00:37:07.674Z,91.70
2017-11-16T00:39:34.276Z,92.00
2017-11-16T00:42:00.819Z,92.20
2017-11-16T00:44:27.367Z,92.20
2017-11-16T00:46:53.971Z,92.10
2017-11-16T00:49:20.504Z,92.70
2017-11-16T00:51:47.048Z,92.60
2017-11-16T00:54:13.693Z,92.00
2017-11-16T00:56:40.236Z,92.00
2017-11-16T00:59:06.787Z,91.90
2017-11-16T01:01:33.371Z,91.60
2017-11-16T01:04:00.272Z,92.20
2017-11-16T01:06:26.835Z,92.20
2017-11-16T01:08:53.437Z,91.70
2017-11-16T01:11:20.355Z,91.60
2017-11-16T01:13:46.879Z,91.60
2017-11-16T01:16:13.493Z,91.60
2017-11-16T01:18:40.040Z,91.70
2017-11-16T01:21:06.674Z,91.50
2017-11-16T01:23:33.647Z,91.50
2017-11-16T01:26:00.195Z,91.50
2017-11-16T01:28:26.743Z,91.50
2017-11-16T01:30:53.318Z,91.50
2017-11-16T01:33:19.870Z,91.50
2017-11-16T01:35:46.413Z,91.30
2017-11-16T01:38:13.034Z,91.70
2017-11-16T01:40:39.593Z,91.30
2017-11-16T01:43:06.150Z,91.40
2017-11-16T01:45:32.755Z,91.50
2017-11-16T01:47:59.683Z,91.30
2017-11-16T01:50:26.227Z,91.30
2017-11-16T01:52:52.876Z,91.30
2017-11-16T01:55:19.468Z,91.70
2017-11-16T01:57:46.391Z,91.80
2017-11-16T02:00:13.042Z,91.80
2017-11-16T02:02:39.682Z,91.90
2017-11-16T02:05:06.634Z,91.50
2017-11-16T02:07:33.278Z,91.50
2017-11-16T02:09:59.867Z,91.20
2017-11-16T02:12:26.834Z,91.30
2017-11-16T02:14:53.482Z,91.30
2017-11-16T02:17:20.055Z,91.10
2017-11-16T02:19:46.654Z,91.60
2017-11-16T02:22:13.479Z,91.30
2017-11-16T02:24:40.095Z,91.30
2017-11-16T02:27:06.713Z,91.50
2017-11-16T02:29:33.795Z,91.70
2017-11-16T02:32:00.402Z,91.70
2017-11-16T02:34:27.034Z,91.90
2017-11-16T02:36:53.665Z,91.80
2017-11-16T02:39:20.296Z,91.90
2017-11-16T02:41:46.924Z,91.60
2017-11-16T02:44:13.969Z,91.60
2017-11-16T02:46:40.986Z,91.80
2017-11-16T02:49:07.611Z,91.80
2017-11-16T02:51:34.274Z,92.00
2017-11-16T02:54:00.884Z,92.20
2017-11-16T02:56:27.869Z,92.20
2017-11-16T02:58:54.539Z,92.20
2017-11-16T03:01:21.178Z,92.30
2017-11-16T03:03:47.711Z,92.10
2017-11-16T03:06:14.366Z,92.20
2017-11-16T03:08:40.929Z,91.90
2017-11-16T03:11:07.544Z,91.70
2017-11-16T03:13:34.391Z,91.90
2017-11-16T03:16:01.461Z,92.00
2017-11-16T03:18:28.052Z,91.90
2017-11-16T03:20:54.747Z,92.00
2017-11-16T03:23:21.825Z,91.90
2017-11-16T03:25:48.447Z,91.90
2017-11-16T03:28:15.612Z,91.80
2017-11-16T03:30:42.560Z,92.00
2017-11-16T03:33:09.491Z,92.20
2017-11-16T03:35:36.095Z,92.20
2017-11-16T03:38:02.671Z,92.20
2017-11-16T03:40:29.254Z,92.00
2017-11-16T03:42:55.895Z,92.10
2017-11-16T03:45:22.462Z,92.30
2017-11-16T03:47:49.388Z,92.30
2017-11-16T03:50:16.051Z,92.30
2017-11-16T03:52:42.651Z,92.20
2017-11-16T03:55:09.258Z,91.90
2017-11-16T03:57:35.932Z,92.20
2017-11-16T04:00:02.905Z,91.70
2017-11-16T04:02:29.448Z,91.70
2017-11-16T04:04:56.159Z,91.00
2017-11-16T04:07:23.094Z,91.40
2017-11-16T04:09:49.725Z,91.40
2017-11-16T04:12:16.500Z,91.50
2017-11-16T04:14:43.091Z,91.70
2017-11-16T04:17:10.038Z,91.90
2017-11-16T04:19:37.032Z,91.10
2017-11-16T04:22:03.667Z,91.10
2017-11-16T04:24:30.260Z,91.20
2017-11-16T04:26:56.903Z,91.30
2017-11-16T04:29:23.515Z,91.20
2017-11-16T04:31:50.059Z,91.40
2017-11-16T04:34:16.723Z,91.40
2017-11-16T04:36:43.271Z,91.50
2017-11-16T04:39:09.883Z,91.50
2017-11-16T04:41:36.857Z,91.30
2017-11-16T04:44:03.408Z,91.30
2017-11-16T04:46:29.944Z,91.00
2017-11-16T04:48:56.555Z,91.00
2017-11-16T04:51:23.113Z,90.80
2017-11-16T04:53:49.683Z,90.90
2017-11-16T04:56:16.751Z,90.80
2017-11-16T04:58:43.315Z,90.80
2017-11-16T05:01:09.898Z,90.90
2017-11-16T05:03:36.504Z,90.20
2017-11-16T05:06:03.062Z,90.20
2017-11-16T05:08:29.663Z,90.70
2017-11-16T05:10:56.279Z,90.50
2017-11-16T05:13:23.243Z,90.90
2017-11-16T05:15:49.815Z,90.90
2017-11-16T05:18:16.411Z,91.00
2017-11-16T05:20:42.991Z,90.90
2017-11-16T05:23:09.567Z,91.10
2017-11-16T05:25:36.566Z,91.10
2017-11-16T05:28:03.111Z,91.10
2017-11-16T05:30:29.691Z,91.00
2017-11-16T05:32:56.485Z,91.00
2017-11-16T05:35:23.434Z,90.80
2017-11-16T05:37:50.363Z,90.90
2017-11-16T05:40:17.049Z,90.80
2017-11-16T05:42:43.611Z,90.80
2017-11-16T05:45:10.162Z,91.10
2017-11-16T05:47:36.927Z,90.50
2017-11-16T05:50:03.506Z,90.80
2017-11-16T05:52:30.084Z,90.80
2017-11-16T05:54:57.123Z,91.20
2017-11-16T05:57:23.719Z,91.20
2017-11-16T05:59:50.294Z,91.00
2017-11-16T06:02:16.923Z,90.90
2017-11-16T06:04:43.512Z,91.00
2017-11-16T06:07:10.460Z,91.20
2017-11-16T06:09:37.510Z,91.20
2017-11-16T06:12:04.476Z,91.00
2017-11-16T06:14:31.316Z,91.00
2017-11-16T06:16:58.088Z,90.90
2017-11-16T06:19:24.643Z,91.10
2017-11-16T06:21:51.200Z,91.10
2017-11-16T06:24:18.215Z,90.90
2017-11-16T06:26:44.804Z,91.00
2017-11-16T06:29:11.727Z,91.10
2017-11-16T06:31:38.331Z,91.10
2017-11-16T06:34:04.901Z,91.40
2017-11-16T06:36:31.447Z,91.60
2017-11-16T06:38:58.159Z,91.70
2017-11-16T06:41:25.116Z,91.60
2017-11-16T06:43:51.695Z,91.60
2017-11-16T06:46:25.263Z,91.50
2017-11-16T06:48:51.911Z,91.50
2017-11-16T06:51:18.469Z,91.10
2017-11-16T06:53:45.825Z,91.60
2017-11-16T06:56:12.767Z,91.60
2017-11-16T06:58:39.331Z,91.60
2017-11-16T07:01:06.319Z,91.80
2017-11-16T07:03:32.871Z,91.80
2017-11-16T07:05:59.423Z,91.40
2017-11-16T07:08:26.449Z,91.30
2017-11-16T07:10:53.383Z,91.30
2017-11-16T07:13:19.958Z,91.30
2017-11-16T07:15:47.228Z,91.70
2017-11-16T07:18:13.793Z,91.70
2017-11-16T07:20:40.391Z,91.40
2017-11-16T07:23:07.015Z,91.40
2017-11-16T07:25:33.612Z,91.10
2017-11-16T07:28:00.531Z,91.70
2017-11-16T07:30:27.155Z,91.80
2017-11-16T07:32:53.704Z,91.80
2017-11-16T07:35:20.255Z,91.50
2017-11-16T07:37:46.880Z,91.10
2017-11-16T07:40:13.487Z,91.20
2017-11-16T07:42:40.089Z,90.80
2017-11-16T07:45:06.743Z,90.90
2017-11-16T07:47:33.368Z,91.50
2017-11-16T07:49:59.975Z,91.50
2017-11-16T07:52:27.071Z,91.40
2017-11-16T07:54:53.683Z,91.60
2017-11-16T07:57:20.284Z,91.30
2017-11-16T07:59:46.988Z,91.60
2017-11-16T08:02:13.539Z,91.30
2017-11-16T08:04:40.474Z,90.70
2017-11-16T08:07:07.262Z,90.70
2017-11-16T08:09:34.190Z,91.00
2017-11-16T08:12:00.735Z,91.00
2017-11-16T08:14:27.351Z,91.00
2017-11-16T08:16:53.899Z,90.90
2017-11-16T08:19:20.497Z,91.00
2017-11-16T08:21:47.559Z,90.70
2017-11-16T08:24:14.488Z,90.50
2017-11-16T08:26:41.068Z,90.40
2017-11-16T08:29:08.039Z,90.10
2017-11-16T08:31:34.575Z,90.10
2017-11-16T08:34:02.069Z,89.80
2017-11-16T08:36:29.008Z,90.10
2017-11-16T08:38:56.037Z,90.00
2017-11-16T08:41:22.592Z,90.00
2017-11-16T08:43:49.243Z,89.70
2017-11-16T08:46:16.302Z,89.60
2017-11-16T08:48:42.901Z,89.60
2017-11-16T08:51:09.579Z,89.50
2017-11-16T08:53:36.199Z,88.80
2017-11-16T08:56:02.839Z,89.30
2017-11-16T08:58:29.525Z,89.00
2017-11-16T09:00:56.165Z,89.20
2017-11-16T09:03:22.848Z,89.10
2017-11-16T09:05:50.011Z,88.40
2017-11-16T09:08:17.004Z,88.90
2017-11-16T09:10:43.655Z,88.90
2017-11-16T09:13:10.339Z,88.50
2017-11-16T09:15:36.967Z,88.90
2017-11-16T09:18:03.584Z,88.90
2017-11-16T09:20:30.703Z,87.30
2017-11-16T09:22:57.307Z,87.30
2017-11-16T09:25:23.913Z,87.30
2017-11-16T09:27:50.716Z,87.10
2017-11-16T09:30:17.311Z,87.30
2017-11-16T09:32:43.934Z,87.70
2017-11-16T09:35:10.608Z,87.40
2017-11-16T09:37:37.161Z,87.10
2017-11-16T09:40:03.760Z,87.50
2017-11-16T09:42:30.811Z,87.90
2017-11-16T09:44:57.769Z,87.20
2017-11-16T09:47:24.697Z,86.50
2017-11-16T09:49:51.367Z,86.50
2017-11-16T09:52:18.555Z,87.00
2017-11-16T09:54:45.188Z,87.00
2017-11-16T09:57:12.181Z,86.60
2017-11-16T09:59:38.740Z,86.60
2017-11-16T10:02:05.289Z,86.40
2017-11-16T10:04:31.898Z,86.00
2017-11-16T10:06:58.436Z,86.30
2017-11-16T10:09:25.360Z,86.50
2017-11-16T10:11:51.975Z,86.50
2017-11-16T10:14:18.523Z,86.00
2017-11-16T10:16:45.072Z,86.30
2017-11-16T10:19:11.680Z,86.70
2017-11-16T10:21:38.598Z,86.60
2017-11-16T10:24:05.151Z,86.60
2017-11-16T10:26:31.743Z,86.60
2017-11-16T10:28:58.433Z,86.30
2017-11-16T10:31:24.995Z,86.10
2017-11-16T10:33:51.720Z,86.40
2017-11-16T10:36:18.292Z,86.60
2017-11-16T10:38:44.884Z,86.60
2017-11-16T10:41:11.492Z,86.10
2017-11-16T10:43:38.140Z,85.70
2017-11-16T10:46:04.700Z,85.70
2017-11-16T10:48:31.471Z,85.60
2017-11-16T10:50:58.445Z,85.30
2017-11-16T10:53:25.039Z,85.30
2017-11-16T10:55:51.715Z,84.90
2017-11-16T10:58:18.672Z,84.30
2017-11-16T11:00:45.613Z,84.10
2017-11-16T11:03:12.227Z,84.10
2017-11-16T11:05:38.771Z,84.60
2017-11-16T11:08:05.336Z,84.00
2017-11-16T11:10:31.991Z,84.10
2017-11-16T11:12:58.564Z,84.50
2017-11-16T11:15:25.512Z,85.20
2017-11-16T11:17:52.149Z,85.20
2017-11-16T11:20:18.700Z,85.10
2017-11-16T11:22:45.243Z,85.00
2017-11-16T11:25:11.883Z,84.20
2017-11-16T11:27:38.435Z,84.00
2017-11-16T11:30:05.045Z,84.70
2017-11-16T11:32:31.655Z,85.20
2017-11-16T11:34:58.232Z,84.90
2017-11-16T11:37:24.775Z,84.50
2017-11-16T11:39:51.415Z,84.70
2017-11-16T11:42:18.319Z,84.00
2017-11-16T11:44:44.875Z,84.00
2017-11-16T11:47:11.474Z,84.80
2017-11-16T11:49:38.068Z,84.60
2017-11-16T11:52:04.622Z,84.60
2017-11-16T11:54:31.236Z,84.80
2017-11-16T11:56:57.800Z,84.90
2017-11-16T11:59:24.377Z,84.50
2017-11-16T12:01:50.991Z,84.00
2017-11-16T12:04:17.588Z,84.80
2017-11-16T12:06:44.529Z,85.20
2017-11-16T12:09:11.171Z,85.20
2017-11-16T12:11:37.728Z,84.80
2017-11-16T12:14:04.295Z,84.50
2017-11-16T12:16:31.284Z,85.20
2017-11-16T12:18:57.835Z,85.20
2017-11-16T12:21:24.399Z,84.90
2017-11-16T12:23:50.987Z,84.70
2017-11-16T12:26:17.917Z,85.10
2017-11-16T12:28:44.562Z,85.10
2017-11-16T12:31:11.315Z,85.10
2017-11-16T12:33:37.903Z,85.00
2017-11-16T12:36:04.895Z,85.30
2017-11-16T12:38:31.578Z,85.30
2017-11-16T12:40:58.215Z,85.70
2017-11-16T12:43:24.837Z,86.00
2017-11-16T12:45:51.767Z,86.40
2017-11-16T12:48:18.740Z,86.30
2017-11-16T12:50:45.361Z,86.30
2017-11-16T12:53:12.332Z,86.50
2017-11-16T12:55:39.292Z,86.00
2017-11-16T12:58:05.948Z,86.00
2017-11-16T13:00:32.564Z,86.20
2017-11-16T13:02:59.114Z,86.10
2017-11-16T13:05:25.682Z,86.30
2017-11-16T13:07:53.266Z,86.00
2017-11-16T13:10:19.857Z,86.00
2017-11-16T13:12:46.422Z,85.80
2017-11-16T13:15:13.404Z,86.00
2017-11-16T13:17:40.007Z,86.00
2017-11-16T13:20:06.565Z,86.40
2017-11-16T13:22:33.175Z,86.20
2017-11-16T13:24:59.726Z,86.50
2017-11-16T13:27:26.283Z,86.60
2017-11-16T13:29:53.069Z,86.50
2017-11-16T13:32:19.616Z,86.50
2017-11-16T13:34:46.206Z,86.40
2017-11-16T13:37:12.831Z,86.60
2017-11-16T13:39:39.383Z,86.70
2017-11-16T13:42:06.328Z,87.20
2017-11-16T13:44:33.310Z,87.60
2017-11-16T13:46:59.867Z,87.60
2017-11-16T13:49:26.500Z,87.60
2017-11-16T13:51:53.244Z,87.90
2017-11-16T13:54:20.158Z,87.10
2017-11-16T13:56:46.775Z,87.10
2017-11-16T13:59:13.424Z,87.20
2017-11-16T14:01:39.979Z,87.50
2017-11-16T14:04:06.543Z,87.70
2017-11-16T14:06:33.272Z,87.80
2017-11-16T14:08:59.831Z,87.90
2017-11-16T14:11:26.396Z,87.70
2017-11-16T14:13:52.998Z,87.60
2017-11-16T14:16:19.555Z,87.80
2017-11-16T14:18:46.112Z,88.00
2017-11-16T14:21:12.709Z,87.90
2017-11-16T14:23:39.641Z,86.70
2017-11-16T14:26:06.208Z,86.70
2017-11-16T14:28:32.992Z,87.10
2017-11-16T14:30:59.962Z,86.50
2017-11-16T14:33:26.519Z,86.50
2017-11-16T14:35:53.133Z,86.70
2017-11-16T14:38:20.048Z,86.70
2017-11-16T14:40:46.609Z,86.70
2017-11-16T14:43:13.260Z,86.90
2017-11-16T14:45:39.906Z,87.00
2017-11-16T14:48:06.462Z,86.60
2017-11-16T14:50:33.105Z,86.70
2017-11-16T14:52:59.660Z,86.80
2017-11-16T14:55:26.216Z,86.90
2017-11-16T14:57:53.191Z,87.00
2017-11-16T15:00:20.133Z,87.70
2017-11-16T15:02:47.059Z,87.80
2017-11-16T15:05:13.653Z,87.80
2017-11-16T15:07:40.244Z,87.80
2017-11-16T15:10:06.853Z,87.90
2017-11-16T15:12:33.473Z,87.50
2017-11-16T15:15:00.406Z,87.80
2017-11-16T15:17:26.973Z,87.80
2017-11-16T15:19:53.748Z,88.00
2017-11-16T15:22:20.676Z,88.00
2017-11-16T15:24:47.252Z,88.00
2017-11-16T15:27:13.867Z,88.10
2017-11-16T15:29:40.449Z,88.40
2017-11-16T15:32:07.451Z,88.20
2017-11-16T15:34:34.067Z,88.20
2017-11-16T15:37:00.652Z,88.20
2017-11-16T15:39:27.194Z,88.40
2017-11-16T15:41:53.883Z,88.40
2017-11-16T15:44:20.415Z,88.40
2017-11-16T15:46:46.960Z,88.40
2017-11-16T15:49:13.671Z,87.60
2017-11-16T15:51:40.227Z,87.30
2017-11-16T15:54:06.779Z,87.50
2017-11-16T15:56:33.400Z,87.50
2017-11-16T15:58:59.960Z,87.40
2017-11-16T16:01:26.520Z,87.30
2017-11-16T16:03:53.595Z,87.80
2017-11-16T16:06:20.147Z,87.80
2017-11-16T16:08:47.074Z,87.80
2017-11-16T16:11:13.744Z,87.80
2017-11-16T16:13:40.293Z,87.80
2017-11-16T16:16:06.836Z,87.80
2017-11-16T16:18:33.480Z,87.70
2017-11-16T16:21:00.035Z,87.80
2017-11-16T16:23:26.592Z,87.20
2017-11-16T16:25:53.296Z,87.10
2017-11-16T16:28:19.856Z,87.20
2017-11-16T16:30:46.408Z,87.40
2017-11-16T16:33:13.079Z,87.70
2017-11-16T16:35:39.623Z,87.90
2017-11-16T16:38:06.174Z,88.10
2017-11-16T16:40:32.784Z,88.20
2017-11-16T16:42:59.331Z,88.40
2017-11-16T16:45:25.888Z,88.40
2017-11-16T16:47:52.476Z,88.40
2017-11-16T16:50:19.037Z,88.30
2017-11-16T16:52:45.635Z,88.20
2017-11-16T16:55:12.315Z,88.30
2017-11-16T16:57:39.154Z,88.50
2017-11-16T17:00:06.366Z,88.60
2017-11-16T17:02:33.071Z,88.60
2017-11-16T17:05:00.300Z,88.70
2017-11-16T17:07:26.848Z,89.00
2017-11-16T17:09:53.451Z,88.90
2017-11-16T17:12:20.056Z,88.30
2017-11-16T17:14:46.615Z,88.40
2017-11-16T17:17:13.243Z,88.50
2017-11-16T17:19:39.806Z,88.50
2017-11-16T17:22:06.357Z,88.60
2017-11-16T17:24:32.987Z,88.50
2017-11-16T17:26:59.576Z,88.10
2017-11-16T17:29:26.156Z,88.20
2017-11-16T17:31:53.144Z,88.40
2017-11-16T17:34:19.731Z,88.40
2017-11-16T17:36:46.288Z,88.40
2017-11-16T17:39:12.891Z,88.60
2017-11-16T17:41:39.465Z,88.80
2017-11-16T17:44:06.388Z,88.80
2017-11-16T17:46:33.083Z,88.80
2017-11-16T17:49:00.015Z,88.50
2017-11-16T17:51:26.571Z,88.50
2017-11-16T17:53:53.280Z,88.80
2017-11-16T17:56:19.832Z,88.90
2017-11-16T17:58:46.379Z,89.00
2017-11-16T18:01:13.076Z,88.60
2017-11-16T18:03:41.544Z,88.60
2017-11-16T18:06:08.532Z,88.60
2017-11-16T18:08:35.239Z,88.30
2017-11-16T18:11:01.792Z,88.10
2017-11-16T18:13:28.342Z,88.10
2017-11-16T18:15:55.095Z,88.40
2017-11-16T18:18:22.016Z,88.20
2017-11-16T18:20:48.577Z,88.20
2017-11-16T18:23:15.171Z,87.80
2017-11-16T18:25:42.095Z,87.50
2017-11-16T18:28:08.647Z,87.50
2017-11-16T18:30:35.280Z,87.00
2017-11-16T18:33:02.232Z,86.90
2017-11-16T18:35:29.163Z,86.70
2017-11-16T18:37:55.888Z,86.70
2017-11-16T18:40:22.460Z,86.00
2017-11-16T18:42:49.265Z,85.80
2017-11-16T18:45:16.395Z,85.80
2017-11-16T18:47:44.460Z,85.80
2017-11-16T18:50:11.047Z,86.00
2017-11-16T18:52:37.988Z,86.10
2017-11-16T18:55:04.904Z,86.60
2017-11-16T18:57:31.471Z,86.60
2017-11-16T18:59:58.094Z,86.70
2017-11-16T19:02:24.689Z,86.60
2017-11-16T19:04:51.247Z,86.70
2017-11-16T19:07:18.372Z,87.00
2017-11-16T19:09:45.313Z,86.60
2017-11-16T19:12:11.877Z,86.60
2017-11-16T19:14:38.587Z,86.60
2017-11-16T19:17:05.139Z,86.80
2017-11-16T19:19:31.849Z,86.90
2017-11-16T19:21:58.547Z,86.90
2017-11-16T19:24:25.544Z,86.90
2017-11-16T19:26:52.111Z,86.90
2017-11-16T19:29:19.045Z,86.80
2017-11-16T19:31:46.065Z,86.40
2017-11-16T19:34:12.627Z,86.40
2017-11-16T19:36:39.252Z,86.50
2017-11-16T19:39:05.845Z,86.70
2017-11-16T19:41:32.420Z,86.40
2017-11-16T19:43:59.055Z,86.60
2017-11-16T19:46:25.648Z,86.40
2017-11-16T19:48:52.217Z,86.40
2017-11-16T19:51:18.988Z,86.50
2017-11-16T19:53:45.941Z,86.90
2017-11-16T19:56:12.649Z,86.90
2017-11-16T19:58:39.593Z,87.00
2017-11-16T20:01:06.205Z,87.00
2017-11-16T20:03:32.792Z,86.80
2017-11-16T20:05:59.480Z,86.70
2017-11-16T20:08:26.073Z,86.80
2017-11-16T20:10:52.649Z,86.90
2017-11-16T20:13:19.280Z,87.00
2017-11-16T20:15:45.910Z,87.20
2017-11-16T20:18:12.479Z,86.80
2017-11-16T20:20:39.184Z,86.50
2017-11-16T20:23:05.747Z,86.50
2017-11-16T20:25:32.435Z,86.50
2017-11-16T20:28:00.179Z,86.40
2017-11-16T20:30:26.815Z,86.40
2017-11-16T20:32:53.775Z,86.40
2017-11-16T20:35:20.571Z,86.40
2017-11-16T20:38:00.013Z,86.10
2017-11-16T20:40:39.591Z,86.10
2017-11-16T20:43:24.610Z,86.00
2017-11-16T20:49:15.552Z,85.90
2017-11-16T20:52:03.160Z,85.90
2017-11-16T20:54:30.675Z,85.70
2017-11-16T20:56:57.303Z,86.10
2017-11-16T20:59:24.271Z,86.30
2017-11-16T21:01:51.893Z,86.00
2017-11-16T21:04:18.447Z,86.30
2017-11-16T21:06:45.084Z,85.80
2017-11-16T21:09:11.695Z,85.90
2017-11-16T21:11:38.307Z,85.40
2017-11-16T21:14:04.968Z,85.70
2017-11-16T21:16:32.633Z,85.80
2017-11-16T21:18:59.186Z,85.80
2017-11-16T21:21:26.323Z,86.00
2017-11-16T21:23:53.961Z,86.00
2017-11-16T21:26:20.521Z,85.60
2017-11-16T21:28:47.151Z,85.70
2017-11-16T21:31:14.812Z,85.90
2017-11-16T21:33:41.528Z,85.90
2017-11-16T21:36:09.033Z,85.80
2017-11-16T21:38:35.596Z,85.80
2017-11-16T21:41:02.571Z,85.90
2017-11-16T21:43:31.671Z,85.90
2017-11-16T21:45:58.227Z,85.80
2017-11-16T21:48:24.931Z,85.90
2017-11-16T21:50:51.658Z,86.00
2017-11-16T21:53:18.247Z,86.20
2017-11-16T21:55:44.843Z,85.70
2017-11-16T21:58:11.500Z,85.70
2017-11-16T22:00:38.077Z,85.80
2017-11-16T22:03:04.667Z,85.80
2017-11-16T22:05:31.320Z,85.90
2017-11-16T22:07:57.877Z,85.80
2017-11-16T22:10:24.452Z,86.00
2017-11-16T22:12:51.079Z,86.20
2017-11-16T22:15:17.648Z,86.50
2017-11-16T22:17:44.263Z,86.20
2017-11-16T22:20:10.981Z,86.90
2017-11-16T22:22:37.643Z,86.20
2017-11-16T22:25:04.192Z,86.20
2017-11-16T22:27:30.804Z,85.40
2017-11-16T22:29:57.381Z,85.30
2017-11-16T22:32:24.256Z,85.40
2017-11-16T22:34:50.867Z,84.60
2017-11-16T22:37:17.817Z,85.10
2017-11-16T22:39:51.514Z,85.10
2017-11-16T22:42:18.123Z,85.00
2017-11-16T22:44:45.082Z,84.80
2017-11-16T22:47:11.690Z,84.80
2017-11-16T22:49:38.291Z,84.80
2017-11-16T22:52:12.059Z,84.80
2017-11-16T22:54:38.635Z,84.80
2017-11-16T22:57:05.184Z,85.10
2017-11-16T22:59:32.187Z,84.70
2017-11-16T23:01:58.752Z,84.80
2017-11-16T23:04:25.348Z,84.80
2017-11-16T23:06:51.936Z,84.60
2017-11-16T23:09:18.843Z,85.20
2017-11-16T23:11:45.388Z,85.20
2017-11-16T23:14:12.007Z,85.30
2017-11-16T23:16:38.544Z,85.50
2017-11-16T23:19:05.083Z,85.50
2017-11-16T23:21:31.699Z,85.00
2017-11-16T23:23:58.618Z,85.00
2017-11-16T23:26:25.167Z,85.00
2017-11-16T23:28:51.786Z,84.70
2017-11-16T23:31:18.702Z,84.80
2017-11-16T23:33:45.280Z,84.80
2017-11-16T23:36:11.991Z,84.90
2017-11-16T23:38:38.544Z,85.20
2017-11-16T23:41:05.452Z,85.50
2017-11-16T23:43:32.066Z,85.50
2017-11-16T23:45:58.986Z,85.70
2017-11-16T23:48:25.554Z,85.70
2017-11-16T23:50:52.139Z,85.60
2017-11-16T23:53:19.057Z,85.90
2017-11-16T23:55:45.611Z,85.90
2017-11-16T23:58:12.238Z,86.00
